Time;durP1;ratioP1;P1;durP2;ratioP2;P2;SDS_P1;SDS_P2;PMS_P1;PMS_P2;Temp;Humidity;BMP_temperature;BMP_pressure;BME280_temperature;BME280_humidity;BME280_pressure;Samples;Min_cycle;Max_cycle;Signal;HPM_P1;HPM_P2
2021/11/17 02:28:49;;;;;;;61.95;33.00;;;;;;;;;;6257252;28;20183;-66
2021/11/17 02:32:08;;;;;;;55.15;30.30;;;;;;;;;;6235673;28;20938;-66
2021/11/17 02:35:17;;;;;;;55.25;31.55;;;;;;;;;;6246748;28;20060;-67
2021/11/17 02:38:31;;;;;;;59.95;32.30;;;;;;;;;;6248684;28;20049;-66
2021/11/17 02:41:39;;;;;;;56.78;30.30;;;;;;;;;;6239909;28;20183;-66
2021/11/17 02:44:59;;;;;;;58.63;30.63;;;;;;;;;;6256714;28;20048;-67
2021/11/17 02:48:08;;;;;;;60.63;30.75;;;;;;;;;;6242109;28;20045;-66
2021/11/17 02:51:19;;;;;;;64.13;32.05;;;;;;;;;;6243701;28;20059;-67
2021/11/17 02:54:30;;;;;;;66.85;31.98;;;;;;;;;;6254614;28;20094;-67
2021/11/17 02:57:41;;;;;;;59.47;32.03;;;;;;;;;;6243660;28;20068;-66
2021/11/17 03:01:13;;;;;;;63.17;32.30;;;;;;;;;;6243241;28;20154;-67
2021/11/17 03:04:33;;;;;;;58.90;30.65;;;;;;;;;;6205621;28;20189;-66
2021/11/17 03:07:42;;;;;;;58.15;30.20;;;;;;;;;;6246488;28;20046;-67
2021/11/17 03:10:56;;;;;;;58.85;30.20;;;;;;;;;;6243920;28;20472;-67
2021/11/17 03:14:05;;;;;;;57.13;30.52;;;;;;;;;;6254374;28;20041;-67
2021/11/17 03:17:31;;;;;;;53.42;29.70;;;;;;;;;;6237192;28;20045;-67
2021/11/17 03:20:41;;;;;;;58.55;29.60;;;;;;;;;;6205119;28;20045;-67
2021/11/17 03:23:50;;;;;;;61.40;30.30;;;;;;;;;;6229434;28;20493;-67
2021/11/17 03:26:57;;;;;;;64.85;32.55;;;;;;;;;;6213797;28;20524;-67
2021/11/17 03:30:14;;;;;;;67.47;33.33;;;;;;;;;;6227292;28;20065;-67
2021/11/17 03:33:32;;;;;;;62.15;32.10;;;;;;;;;;6213833;28;20465;-67
2021/11/17 03:36:40;;;;;;;64.25;31.60;;;;;;;;;;6218334;28;20060;-67
2021/11/17 03:39:56;;;;;;;65.25;33.25;;;;;;;;;;6230120;28;20578;-67
2021/11/17 03:43:06;;;;;;;62.58;31.02;;;;;;;;;;6216009;28;20046;-67
2021/11/17 03:46:19;;;;;;;60.40;30.65;;;;;;;;;;6214026;28;20150;-67
2021/11/17 03:49:27;;;;;;;60.55;32.08;;;;;;;;;;6226905;28;20554;-67
2021/11/17 03:52:37;;;;;;;62.70;33.33;;;;;;;;;;6224316;28;20060;-67
2021/11/17 03:55:53;;;;;;;60.10;29.90;;;;;;;;;;6227372;28;20042;-67
2021/11/17 03:59:06;;;;;;;59.10;31.40;;;;;;;;;;6254254;28;20045;-66
2021/11/17 04:02:14;;;;;;;62.30;31.20;;;;;;;;;;6236330;28;20072;-66
2021/11/17 04:05:26;;;;;;;54.20;30.23;;;;;;;;;;6244940;28;20094;-67
2021/11/17 04:08:33;;;;;;;56.30;30.30;;;;;;;;;;6252752;28;20044;-67
2021/11/17 04:11:42;;;;;;;57.03;29.83;;;;;;;;;;6249920;28;20052;-66
2021/11/17 04:14:52;;;;;;;62.85;32.17;;;;;;;;;;6257508;28;20044;-66
2021/11/17 04:17:57;;;;;;;61.25;31.88;;;;;;;;;;6246499;28;20497;-67
2021/11/17 04:21:25;;;;;;;59.63;32.53;;;;;;;;;;6246842;28;20450;-67
2021/11/17 04:24:35;;;;;;;63.42;32.03;;;;;;;;;;6257274;28;20098;-66
2021/11/17 04:27:44;;;;;;;68.32;34.60;;;;;;;;;;6242217;28;20055;-67
2021/11/17 04:30:57;;;;;;;68.50;33.65;;;;;;;;;;6247586;28;20136;-67
2021/11/17 04:34:09;;;;;;;66.10;31.80;;;;;;;;;;6246426;28;20050;-67
2021/11/17 04:37:20;;;;;;;66.20;33.05;;;;;;;;;;6248731;28;20053;-67
2021/11/17 04:40:38;;;;;;;62.88;32.63;;;;;;;;;;6251227;28;20052;-67
2021/11/17 04:43:49;;;;;;;62.40;32.75;;;;;;;;;;6257075;28;20041;-67
2021/11/17 04:46:58;;;;;;;59.40;31.20;;;;;;;;;;6240111;28;20041;-67
2021/11/17 04:50:17;;;;;;;66.13;32.95;;;;;;;;;;6258343;28;20136;-67
2021/11/17 04:53:31;;;;;;;60.80;31.33;;;;;;;;;;6260845;28;20186;-66
2021/11/17 04:56:39;;;;;;;59.97;30.42;;;;;;;;;;6245245;28;20037;-65
2021/11/17 04:59:53;;;;;;;65.05;32.67;;;;;;;;;;6252858;28;20055;-64
2021/11/17 05:03:05;;;;;;;62.47;30.98;;;;;;;;;;6240096;28;20509;-65
2021/11/17 05:06:12;;;;;;;57.80;31.05;;;;;;;;;;6244792;28;20048;-64
2021/11/17 05:09:18;;;;;;;60.05;32.70;;;;;;;;;;6251014;28;20041;-64
2021/11/17 05:12:27;;;;;;;65.30;33.33;;;;;;;;;;6246600;28;20044;-64
2021/11/17 05:15:36;;;;;;;62.70;32.15;;;;;;;;;;6251305;28;20136;-65
2021/11/17 05:18:43;;;;;;;64.35;33.60;;;;;;;;;;6257805;28;20037;-65
2021/11/17 05:21:51;;;;;;;66.03;32.55;;;;;;;;;;6249414;28;20514;-65
2021/11/17 05:25:02;;;;;;;60.97;32.63;;;;;;;;;;6259604;28;20075;-65
2021/11/17 05:28:10;;;;;;;63.35;32.95;;;;;;;;;;6246141;28;20131;-65
2021/11/17 05:31:17;;;;;;;62.50;33.30;;;;;;;;;;6242903;28;20059;-65
2021/11/17 05:34:26;;;;;;;63.13;33.10;;;;;;;;;;6256625;28;20052;-65
2021/11/17 05:37:33;;;;;;;57.55;33.00;;;;;;;;;;6251000;28;20557;-65
2021/11/17 05:40:41;;;;;;;63.15;33.10;;;;;;;;;;6249653;28;20834;-64
2021/11/17 05:43:51;;;;;;;62.05;33.22;;;;;;;;;;6263311;28;20136;-66
2021/11/17 05:46:58;;;;;;;55.55;30.75;;;;;;;;;;6241471;28;20052;-66
2021/11/17 05:50:08;;;;;;;58.47;31.17;;;;;;;;;;6255909;28;20049;-66
2021/11/17 05:53:16;;;;;;;57.38;31.42;;;;;;;;;;6251086;28;20075;-67
2021/11/17 05:56:26;;;;;;;53.40;30.02;;;;;;;;;;6246123;28;20373;-67
2021/11/17 05:59:37;;;;;;;59.97;30.80;;;;;;;;;;6254272;28;20055;-66
2021/11/17 06:02:46;;;;;;;59.85;31.27;;;;;;;;;;6237267;28;20129;-67
2021/11/17 06:05:47;;;;;;;60.85;31.85;;;;;;;;;;6241643;28;20121;-67
2021/11/17 06:08:48;;;;;;;55.08;29.80;;;;;;;;;;6252785;28;20128;-66
2021/11/17 06:11:53;;;;;;;63.53;31.38;;;;;;;;;;6244762;28;20137;-66
2021/11/17 06:14:54;;;;;;;56.42;30.05;;;;;;;;;;6257325;28;20500;-66
2021/11/17 06:17:57;;;;;;;57.00;30.27;;;;;;;;;;6240404;28;20060;-67
2021/11/17 06:20:58;;;;;;;56.90;30.30;;;;;;;;;;6238122;28;20456;-67
2021/11/17 06:24:01;;;;;;;58.20;31.52;;;;;;;;;;6255032;28;20542;-67
2021/11/17 06:27:06;;;;;;;53.95;29.35;;;;;;;;;;6246321;28;20041;-67
2021/11/17 06:30:09;;;;;;;54.90;29.25;;;;;;;;;;6260284;28;20100;-67
2021/11/17 06:33:11;;;;;;;58.33;30.98;;;;;;;;;;6243596;28;20084;-66
2021/11/17 06:36:12;;;;;;;54.70;30.90;;;;;;;;;;6245280;28;20053;-66
2021/11/17 06:39:14;;;;;;;58.15;30.98;;;;;;;;;;6251827;28;20666;-67
2021/11/17 06:42:18;;;;;;;59.90;31.52;;;;;;;;;;6249467;28;20050;-67
2021/11/17 06:45:21;;;;;;;62.50;32.33;;;;;;;;;;6247157;28;20594;-67
2021/11/17 06:48:24;;;;;;;58.33;30.30;;;;;;;;;;6251084;28;20045;-67
2021/11/17 06:51:25;;;;;;;59.35;32.90;;;;;;;;;;6244029;28;20090;-67
2021/11/17 06:54:27;;;;;;;59.13;31.77;;;;;;;;;;6255086;28;20128;-66
2021/11/17 06:57:29;;;;;;;62.92;32.08;;;;;;;;;;6249664;28;20053;-66
2021/11/17 07:00:33;;;;;;;65.78;32.97;;;;;;;;;;6241470;28;20049;-67
2021/11/17 07:03:34;;;;;;;64.23;33.27;;;;;;;;;;6249151;28;20128;-67
2021/11/17 07:06:35;;;;;;;60.17;31.75;;;;;;;;;;6246464;28;20056;-65
2021/11/17 07:09:37;;;;;;;56.22;29.70;;;;;;;;;;6253820;28;20037;-66
2021/11/17 07:12:39;;;;;;;60.88;31.15;;;;;;;;;;6241402;28;20128;-66
2021/11/17 07:15:41;;;;;;;58.15;31.40;;;;;;;;;;6242242;28;20047;-66
2021/11/17 07:18:43;;;;;;;59.25;31.17;;;;;;;;;;6249026;28;20041;-66
2021/11/17 07:21:44;;;;;;;56.65;30.73;;;;;;;;;;6242941;28;20099;-67
2021/11/17 07:24:46;;;;;;;58.75;31.60;;;;;;;;;;6253062;28;20045;-67
2021/11/17 07:27:49;;;;;;;62.58;31.52;;;;;;;;;;6253391;28;20063;-66
2021/11/17 07:30:50;;;;;;;59.92;30.88;;;;;;;;;;6243227;28;20053;-67
2021/11/17 07:33:52;;;;;;;59.00;30.25;;;;;;;;;;6245118;28;20110;-66
2021/11/17 07:36:53;;;;;;;58.58;31.70;;;;;;;;;;6246779;28;20569;-66
2021/11/17 07:39:55;;;;;;;59.78;30.35;;;;;;;;;;6256847;28;20520;-67
2021/11/17 07:42:57;;;;;;;58.95;30.65;;;;;;;;;;6246166;28;20245;-66
2021/11/17 07:45:59;;;;;;;56.63;29.38;;;;;;;;;;6246501;28;20086;-67
2021/11/17 07:49:01;;;;;;;54.33;29.98;;;;;;;;;;6256037;28;20175;-67
2021/11/17 07:52:02;;;;;;;58.45;30.00;;;;;;;;;;6250323;28;20136;-67
2021/11/17 07:55:05;;;;;;;58.58;31.27;;;;;;;;;;6259706;28;20128;-67
2021/11/17 07:58:09;;;;;;;58.65;31.27;;;;;;;;;;6249537;28;20140;-67
2021/11/17 08:01:11;;;;;;;57.03;30.63;;;;;;;;;;6238692;28;20037;-67
2021/11/17 08:04:14;;;;;;;56.60;30.55;;;;;;;;;;6255377;28;20053;-67
2021/11/17 08:07:18;;;;;;;61.13;31.83;;;;;;;;;;6246147;28;20381;-67
2021/11/17 08:10:22;;;;;;;54.25;29.40;;;;;;;;;;6254135;28;20138;-66
2021/11/17 08:13:25;;;;;;;58.88;31.45;;;;;;;;;;6261360;28;20041;-67
2021/11/17 08:16:26;;;;;;;56.03;31.45;;;;;;;;;;6243135;28;20048;-67
2021/11/17 08:19:27;;;;;;;54.13;30.25;;;;;;;;;;6258126;28;20242;-67
2021/11/17 08:22:29;;;;;;;56.28;29.73;;;;;;;;;;6248699;28;20065;-68
2021/11/17 08:25:31;;;;;;;51.95;30.02;;;;;;;;;;6248578;28;20859;-67
2021/11/17 08:28:34;;;;;;;53.45;30.20;;;;;;;;;;6260738;28;20041;-68
2021/11/17 08:31:36;;;;;;;52.75;30.05;;;;;;;;;;6244622;28;20088;-67
2021/11/17 08:34:39;;;;;;;54.97;30.95;;;;;;;;;;6250414;28;20643;-67
2021/11/17 08:37:40;;;;;;;55.60;31.50;;;;;;;;;;6250269;28;20059;-67
2021/11/17 08:40:43;;;;;;;58.78;30.88;;;;;;;;;;6246471;28;20073;-67
2021/11/17 08:43:46;;;;;;;60.30;31.37;;;;;;;;;;6258129;28;20052;-67
2021/11/17 08:46:47;;;;;;;60.35;31.73;;;;;;;;;;6239492;28;20174;-67
2021/11/17 08:49:53;;;;;;;59.28;30.83;;;;;;;;;;6258097;28;20044;-67
2021/11/17 08:52:56;;;;;;;57.22;31.15;;;;;;;;;;6251841;28;20068;-67
2021/11/17 08:55:58;;;;;;;54.13;30.13;;;;;;;;;;6247074;28;20052;-67
2021/11/17 08:59:02;;;;;;;55.80;31.10;;;;;;;;;;6261952;28;20378;-67
2021/11/17 09:02:05;;;;;;;57.67;30.40;;;;;;;;;;6244355;28;20060;-67
2021/11/17 09:05:06;;;;;;;57.33;30.30;;;;;;;;;;6247904;28;20488;-68
2021/11/17 09:08:08;;;;;;;59.50;31.60;;;;;;;;;;6243958;28;20056;-67
2021/11/17 09:11:11;;;;;;;56.63;31.25;;;;;;;;;;6248576;28;20041;-67
2021/11/17 09:14:14;;;;;;;54.83;29.73;;;;;;;;;;6256659;28;20106;-67
2021/11/17 09:17:16;;;;;;;53.90;30.65;;;;;;;;;;6241073;28;20503;-68
2021/11/17 09:20:19;;;;;;;52.38;29.33;;;;;;;;;;6247897;28;20049;-67
2021/11/17 09:23:23;;;;;;;57.55;30.63;;;;;;;;;;6255317;28;20049;-67
2021/11/17 09:26:24;;;;;;;55.28;32.42;;;;;;;;;;6249810;28;20524;-67
2021/11/17 09:29:31;;;;;;;48.63;28.80;;;;;;;;;;6255661;28;20119;-67
2021/11/17 09:32:32;;;;;;;52.30;30.15;;;;;;;;;;6232535;28;20041;-67
2021/11/17 09:35:34;;;;;;;54.10;29.83;;;;;;;;;;6243220;28;20045;-67
2021/11/17 09:38:35;;;;;;;52.22;29.88;;;;;;;;;;6258186;28;20623;-67
2021/11/17 09:41:38;;;;;;;52.38;29.95;;;;;;;;;;6243232;28;20679;-67
2021/11/17 09:44:43;;;;;;;54.88;30.63;;;;;;;;;;6259998;28;20387;-67
2021/11/17 09:47:45;;;;;;;50.30;29.48;;;;;;;;;;6235320;28;20049;-68
2021/11/17 09:50:48;;;;;;;49.25;29.50;;;;;;;;;;6241193;28;20053;-68
2021/11/17 09:53:51;;;;;;;53.63;30.00;;;;;;;;;;6257896;28;20044;-68
2021/11/17 09:56:54;;;;;;;50.63;30.00;;;;;;;;;;6244278;28;20481;-68
2021/11/17 10:00:01;;;;;;;54.83;30.15;;;;;;;;;;6256388;28;20401;-67
2021/11/17 10:03:04;;;;;;;51.42;29.83;;;;;;;;;;6232907;28;20057;-67
2021/11/17 10:12:52;;;;;;;51.25;28.70;;;;;;;;;;6247811;28;20067;-67
2021/11/17 10:15:56;;;;;;;49.20;29.85;;;;;;;;;;6244336;28;20168;-67
2021/11/17 10:19:15;;;;;;;51.83;30.83;;;;;;;;;;6252922;28;20049;-67
2021/11/17 10:22:20;;;;;;;50.67;31.02;;;;;;;;;;6242668;28;20090;-67
2021/11/17 10:25:23;;;;;;;53.65;30.73;;;;;;;;;;6248129;28;20060;-67
2021/11/17 10:28:26;;;;;;;53.85;28.45;;;;;;;;;;6254213;28;20079;-68
2021/11/17 10:31:31;;;;;;;50.40;30.03;;;;;;;;;;6237912;28;20511;-67
2021/11/17 10:34:34;;;;;;;39.65;25.27;;;;;;;;;;6253932;28;20094;-67
2021/11/17 10:37:37;;;;;;;37.23;22.70;;;;;;;;;;6238907;28;20041;-67
2021/11/17 10:40:45;;;;;;;33.92;23.15;;;;;;;;;;6245930;28;20044;-67
2021/11/17 10:43:51;;;;;;;37.13;23.38;;;;;;;;;;6256381;28;20041;-67
2021/11/17 10:47:00;;;;;;;35.60;22.92;;;;;;;;;;6236430;28;20103;-67
2021/11/17 10:50:15;;;;;;;36.75;23.33;;;;;;;;;;6253265;28;20045;-67
2021/11/17 10:53:26;;;;;;;40.10;25.00;;;;;;;;;;6251091;28;20054;-66
2021/11/17 10:56:29;;;;;;;39.90;24.63;;;;;;;;;;6244039;28;20509;-67
2021/11/17 10:59:31;;;;;;;44.42;25.95;;;;;;;;;;6252822;28;20144;-67
2021/11/17 11:02:35;;;;;;;43.53;25.83;;;;;;;;;;6235544;28;20166;-67
2021/11/17 11:05:42;;;;;;;43.35;26.83;;;;;;;;;;6240183;28;20045;-67
2021/11/17 11:08:48;;;;;;;41.95;26.90;;;;;;;;;;6251515;28;20067;-67
2021/11/17 11:11:51;;;;;;;41.13;27.25;;;;;;;;;;6238567;28;20672;-67
2021/11/17 11:14:55;;;;;;;46.08;27.85;;;;;;;;;;6255696;28;20052;-67
2021/11/17 11:18:16;;;;;;;44.33;27.33;;;;;;;;;;6235088;28;20060;-67
2021/11/17 11:21:20;;;;;;;46.22;26.73;;;;;;;;;;6240086;28;21060;-67
2021/11/17 11:24:30;;;;;;;41.97;25.88;;;;;;;;;;6254796;28;20090;-67
2021/11/17 11:27:32;;;;;;;41.22;25.70;;;;;;;;;;6241123;28;20140;-67
2021/11/17 11:30:35;;;;;;;43.47;25.48;;;;;;;;;;6245769;28;20133;-68
2021/11/17 11:33:38;;;;;;;47.50;26.05;;;;;;;;;;6244921;28;20567;-67
2021/11/17 11:36:46;;;;;;;37.08;23.95;;;;;;;;;;6242999;28;20103;-68
2021/11/17 11:39:48;;;;;;;39.60;24.98;;;;;;;;;;6255457;28;20052;-68
2021/11/17 11:43:08;;;;;;;39.47;23.77;;;;;;;;;;6244927;28;20052;-68
2021/11/17 11:46:19;;;;;;;35.83;22.75;;;;;;;;;;6239550;28;20051;-68
2021/11/17 11:49:38;;;;;;;31.55;19.55;;;;;;;;;;6251264;28;20481;-68
2021/11/17 11:52:57;;;;;;;32.95;20.27;;;;;;;;;;6243229;28;20170;-67
2021/11/17 11:56:15;;;;;;;33.90;20.95;;;;;;;;;;6241041;28;20102;-68
2021/11/17 11:59:19;;;;;;;33.38;20.10;;;;;;;;;;6248844;28;20534;-68
2021/11/17 12:02:23;;;;;;;36.67;21.88;;;;;;;;;;6235922;28;20102;-68
2021/11/17 12:05:32;;;;;;;32.58;21.40;;;;;;;;;;6240877;28;20275;-68
2021/11/17 12:08:42;;;;;;;32.03;19.98;;;;;;;;;;6250927;28;20518;-68
2021/11/17 12:11:51;;;;;;;28.83;19.20;;;;;;;;;;6241962;28;20057;-68
2021/11/17 12:14:53;;;;;;;32.97;20.88;;;;;;;;;;6253451;28;20068;-68
2021/11/17 12:18:19;;;;;;;33.28;20.92;;;;;;;;;;6239656;28;20045;-68
2021/11/17 12:21:22;;;;;;;32.45;19.92;;;;;;;;;;6239860;28;20160;-68
2021/11/17 12:24:27;;;;;;;33.67;21.35;;;;;;;;;;6258843;28;20191;-68
2021/11/17 12:27:32;;;;;;;35.13;20.08;;;;;;;;;;6252332;28;20037;-67
2021/11/17 12:30:36;;;;;;;33.35;20.80;;;;;;;;;;6252521;28;20147;-67
2021/11/17 12:33:37;;;;;;;;;;;;;;;;;;6261144;28;20572;-67
2021/11/17 12:36:48;;;;;;;31.85;20.35;;;;;;;;;;6251431;28;19920;-66
2021/11/17 12:39:54;;;;;;;35.05;21.02;;;;;;;;;;6268835;28;20049;-67
2021/11/17 12:42:56;;;;;;;30.70;19.38;;;;;;;;;;6258859;28;20060;-67
2021/11/17 12:46:03;;;;;;;28.50;19.20;;;;;;;;;;6253158;28;20044;-66
2021/11/17 12:49:07;;;;;;;31.05;18.70;;;;;;;;;;6261338;28;20100;-66
2021/11/17 12:52:10;;;;;;;32.25;19.42;;;;;;;;;;6250372;28;20167;-68
2021/11/17 12:55:16;;;;;;;26.10;17.93;;;;;;;;;;6251777;28;20164;-67
2021/11/17 12:58:19;;;;;;;29.48;17.92;;;;;;;;;;6251524;28;20640;-65
2021/11/17 13:01:24;;;;;;;24.38;16.45;;;;;;;;;;6253028;28;20384;-65
2021/11/17 13:04:27;;;;;;;25.67;16.70;;;;;;;;;;6268133;28;20112;-65
2021/11/17 13:07:32;;;;;;;29.88;17.73;;;;;;;;;;6250601;28;20152;-65
2021/11/17 13:10:36;;;;;;;26.10;16.40;;;;;;;;;;6247730;28;20114;-65
2021/11/17 13:13:44;;;;;;;26.67;16.85;;;;;;;;;;6268485;28;20119;-65
2021/11/17 13:16:48;;;;;;;25.00;16.45;;;;;;;;;;6234603;28;20037;-65
2021/11/17 13:19:51;;;;;;;27.02;17.13;;;;;;;;;;6256933;28;20083;-65
2021/11/17 13:22:54;;;;;;;22.73;15.57;;;;;;;;;;6243968;28;20045;-65
2021/11/17 13:26:00;;;;;;;25.80;17.03;;;;;;;;;;6250087;28;20134;-64
2021/11/17 13:29:16;;;;;;;23.17;15.15;;;;;;;;;;6255549;28;20048;-64
2021/11/17 13:32:19;;;;;;;23.88;15.05;;;;;;;;;;6234412;28;20049;-64
2021/11/17 13:35:26;;;;;;;20.40;15.17;;;;;;;;;;6245389;28;20045;-66
2021/11/17 13:38:27;;;;;;;27.30;16.80;;;;;;;;;;6249076;28;20036;-64
2021/11/17 13:41:30;;;;;;;26.38;17.30;;;;;;;;;;6245875;28;20160;-65
2021/11/17 13:44:31;;;;;;;28.00;17.10;;;;;;;;;;6258154;28;20643;-64
2021/11/17 13:47:33;;;;;;;25.17;16.42;;;;;;;;;;6242027;28;21164;-65
2021/11/17 13:50:36;;;;;;;28.02;17.05;;;;;;;;;;6248241;28;20041;-66
2021/11/17 13:53:37;;;;;;;27.85;17.65;;;;;;;;;;6254158;28;20116;-66
2021/11/17 13:56:40;;;;;;;27.15;17.33;;;;;;;;;;6247579;28;20525;-65
2021/11/17 13:59:42;;;;;;;25.80;17.60;;;;;;;;;;6260763;28;20094;-65
2021/11/17 14:02:45;;;;;;;29.02;17.60;;;;;;;;;;6219878;28;20039;-65
2021/11/17 14:05:49;;;;;;;27.98;18.95;;;;;;;;;;6247329;28;20147;-66
2021/11/17 14:08:50;;;;;;;34.35;19.33;;;;;;;;;;6261621;28;20345;-65
2021/11/17 14:11:53;;;;;;;29.85;20.38;;;;;;;;;;6253743;28;20373;-66
2021/11/17 14:14:55;;;;;;;31.55;19.38;;;;;;;;;;6256830;28;20055;-66
2021/11/17 14:17:56;;;;;;;27.02;19.13;;;;;;;;;;6238864;28;20069;-66
2021/11/17 14:20:58;;;;;;;29.58;20.88;;;;;;;;;;6239010;28;20176;-65
2021/11/17 14:23:59;;;;;;;30.55;20.13;;;;;;;;;;6248586;28;20136;-65
2021/11/17 14:27:04;;;;;;;30.23;19.77;;;;;;;;;;6257309;28;20076;-65
2021/11/17 14:30:10;;;;;;;30.75;19.92;;;;;;;;;;6253118;28;20047;-67
2021/11/17 14:33:13;;;;;;;34.30;19.48;;;;;;;;;;6242513;28;20052;-66
2021/11/17 14:36:16;;;;;;;31.15;19.30;;;;;;;;;;6246925;28;20057;-67
2021/11/17 14:39:17;;;;;;;28.67;19.77;;;;;;;;;;6254606;28;20124;-67
2021/11/17 14:42:20;;;;;;;29.10;19.23;;;;;;;;;;6244523;28;20056;-65
2021/11/17 14:45:23;;;;;;;32.25;19.40;;;;;;;;;;6252022;28;20057;-67
2021/11/17 14:48:25;;;;;;;30.13;19.45;;;;;;;;;;6247202;28;20128;-64
2021/11/17 14:51:27;;;;;;;51.63;32.38;;;;;;;;;;6242781;28;20396;-66
2021/11/17 14:54:28;;;;;;;54.85;34.42;;;;;;;;;;6258512;28;20123;-64
2021/11/17 14:57:31;;;;;;;48.33;31.42;;;;;;;;;;6245914;28;20190;-64
2021/11/17 15:00:34;;;;;;;36.17;24.20;;;;;;;;;;6238422;28;20134;-65
2021/11/17 15:03:35;;;;;;;46.53;27.63;;;;;;;;;;6248029;28;20060;-64
2021/11/17 15:06:38;;;;;;;32.78;20.88;;;;;;;;;;6251452;28;20155;-66
2021/11/17 15:09:39;;;;;;;30.13;19.80;;;;;;;;;;6254660;28;20315;-65
2021/11/17 15:12:43;;;;;;;30.85;20.30;;;;;;;;;;6255615;28;20056;-66
2021/11/17 15:15:45;;;;;;;33.20;21.30;;;;;;;;;;6253971;28;20129;-66
2021/11/17 15:18:47;;;;;;;31.48;21.33;;;;;;;;;;6256609;28;20397;-66
2021/11/17 15:21:50;;;;;;;33.83;21.38;;;;;;;;;;6249228;28;20128;-66
2021/11/17 15:24:52;;;;;;;34.90;21.25;;;;;;;;;;6248993;28;20049;-66
2021/11/17 15:27:56;;;;;;;33.50;20.80;;;;;;;;;;6254860;28;20056;-66
2021/11/17 15:31:00;;;;;;;31.70;20.55;;;;;;;;;;6245220;28;20072;-66
2021/11/17 15:34:02;;;;;;;31.35;20.92;;;;;;;;;;6243051;28;20050;-66
2021/11/17 15:37:05;;;;;;;36.92;21.65;;;;;;;;;;6243229;28;20515;-66
2021/11/17 15:40:11;;;;;;;35.38;22.30;;;;;;;;;;6251060;28;20084;-68
2021/11/17 15:43:14;;;;;;;34.22;22.50;;;;;;;;;;6250355;28;20122;-66
2021/11/17 15:46:16;;;;;;;32.47;21.13;;;;;;;;;;6242828;28;20337;-67
2021/11/17 15:49:18;;;;;;;31.25;20.55;;;;;;;;;;6243740;28;20056;-66
2021/11/17 15:52:19;;;;;;;32.83;21.23;;;;;;;;;;6244070;28;20174;-67
2021/11/17 15:55:21;;;;;;;32.17;21.15;;;;;;;;;;6253882;28;20187;-68
2021/11/17 15:58:24;;;;;;;33.75;20.98;;;;;;;;;;6257246;28;20110;-67
2021/11/17 16:01:26;;;;;;;35.67;21.63;;;;;;;;;;6243332;28;20118;-66
2021/11/17 16:04:27;;;;;;;38.35;21.55;;;;;;;;;;6255005;28;20131;-66
2021/11/17 16:07:29;;;;;;;34.20;21.63;;;;;;;;;;6240337;28;20150;-67
2021/11/17 16:10:30;;;;;;;34.38;20.52;;;;;;;;;;6248294;28;25260;-67
2021/11/17 16:13:33;;;;;;;32.90;20.95;;;;;;;;;;6253038;28;20041;-67
2021/11/17 16:16:34;;;;;;;34.38;20.90;;;;;;;;;;6240992;28;20057;-67
2021/11/17 16:19:38;;;;;;;34.25;22.15;;;;;;;;;;6258492;28;20049;-66
2021/11/17 16:22:41;;;;;;;35.27;22.20;;;;;;;;;;6248196;28;20041;-67
2021/11/17 16:25:44;;;;;;;34.63;20.77;;;;;;;;;;6248076;28;20764;-66
2021/11/17 16:28:48;;;;;;;35.17;22.13;;;;;;;;;;6256001;28;20137;-68
2021/11/17 16:31:49;;;;;;;31.98;20.85;;;;;;;;;;6227455;28;20106;-66
2021/11/17 16:34:52;;;;;;;35.03;20.75;;;;;;;;;;6247889;28;20183;-66
2021/11/17 16:37:54;;;;;;;38.15;22.85;;;;;;;;;;6245082;28;20110;-67
2021/11/17 16:40:56;;;;;;;36.28;20.70;;;;;;;;;;6247302;28;20057;-67
2021/11/17 16:43:59;;;;;;;36.47;21.35;;;;;;;;;;6253659;28;20071;-66
2021/11/17 16:47:00;;;;;;;36.72;21.73;;;;;;;;;;6238366;28;20045;-67
2021/11/17 16:50:01;;;;;;;36.65;22.10;;;;;;;;;;6258311;28;20084;-67
2021/11/17 16:53:03;;;;;;;42.50;25.25;;;;;;;;;;6242630;28;20500;-67
2021/11/17 16:56:05;;;;;;;46.75;28.42;;;;;;;;;;6252870;28;20136;-67
2021/11/17 16:59:09;;;;;;;46.65;29.67;;;;;;;;;;6258302;28;20063;-67
2021/11/17 17:02:11;;;;;;;49.33;28.13;;;;;;;;;;6241759;28;20064;-67
2021/11/17 17:05:12;;;;;;;52.95;29.50;;;;;;;;;;6235074;28;20048;-68
2021/11/17 17:08:14;;;;;;;49.38;29.90;;;;;;;;;;6247515;28;20064;-66
2021/11/17 17:11:16;;;;;;;47.40;28.40;;;;;;;;;;6245900;28;20042;-66
2021/11/17 17:14:18;;;;;;;49.85;30.05;;;;;;;;;;6249976;28;21020;-66
2021/11/17 17:17:20;;;;;;;53.10;30.63;;;;;;;;;;6237826;28;20489;-66
2021/11/17 17:20:25;;;;;;;46.38;28.98;;;;;;;;;;6240460;28;20077;-66
2021/11/17 17:23:26;;;;;;;49.53;30.05;;;;;;;;;;6250706;28;20046;-67
2021/11/17 17:26:28;;;;;;;49.13;28.75;;;;;;;;;;6243842;28;20459;-67
2021/11/17 17:29:33;;;;;;;47.88;28.42;;;;;;;;;;6252040;28;20181;-67
2021/11/17 17:32:34;;;;;;;46.42;27.70;;;;;;;;;;6226693;28;20050;-67
2021/11/17 17:35:36;;;;;;;42.75;26.55;;;;;;;;;;6231085;28;20051;-67
2021/11/17 17:38:38;;;;;;;42.35;26.63;;;;;;;;;;6241126;28;20125;-67
2021/11/17 17:41:40;;;;;;;43.00;25.70;;;;;;;;;;6235131;28;20138;-67
2021/11/17 17:44:43;;;;;;;42.97;25.38;;;;;;;;;;6246202;28;20081;-67
2021/11/17 17:47:44;;;;;;;41.92;26.42;;;;;;;;;;6228161;28;20610;-67
2021/11/17 17:50:46;;;;;;;44.30;25.92;;;;;;;;;;6232818;28;20210;-67
2021/11/17 17:53:48;;;;;;;44.75;26.17;;;;;;;;;;6243954;28;20079;-67
2021/11/17 17:56:49;;;;;;;43.20;25.75;;;;;;;;;;6240239;28;20060;-67
2021/11/17 17:59:52;;;;;;;41.38;24.77;;;;;;;;;;6246508;28;20190;-67
2021/11/17 18:02:54;;;;;;;41.85;24.70;;;;;;;;;;6238284;28;20183;-66
2021/11/17 18:05:55;;;;;;;41.97;25.48;;;;;;;;;;6237980;28;20045;-66
2021/11/17 18:08:56;;;;;;;45.30;25.92;;;;;;;;;;6247091;28;20049;-66
2021/11/17 18:11:58;;;;;;;44.65;24.67;;;;;;;;;;6239588;28;20048;-66
2021/11/17 18:15:01;;;;;;;48.17;25.40;;;;;;;;;;6252289;28;20052;-66
2021/11/17 18:18:02;;;;;;;42.05;23.70;;;;;;;;;;6240532;28;20041;-66
2021/11/17 18:21:05;;;;;;;46.67;25.38;;;;;;;;;;6249317;28;20112;-66
2021/11/17 18:24:06;;;;;;;39.85;24.17;;;;;;;;;;6254271;28;20049;-66
2021/11/17 18:27:11;;;;;;;41.83;24.88;;;;;;;;;;6241108;28;20110;-66
2021/11/17 18:30:15;;;;;;;46.20;25.77;;;;;;;;;;6247322;28;20386;-66
2021/11/17 18:33:17;;;;;;;46.65;26.67;;;;;;;;;;6246069;28;20053;-66
2021/11/17 18:36:19;;;;;;;45.53;24.65;;;;;;;;;;6243740;28;20106;-66
2021/11/17 18:39:21;;;;;;;44.13;24.48;;;;;;;;;;6258719;28;20214;-66
2021/11/17 18:42:24;;;;;;;42.38;25.30;;;;;;;;;;6243592;28;20045;-67
2021/11/17 18:45:29;;;;;;;46.43;26.83;;;;;;;;;;6248507;28;20773;-66
2021/11/17 18:48:30;;;;;;;47.05;26.10;;;;;;;;;;6256518;28;20061;-66
2021/11/17 18:51:32;;;;;;;43.63;24.60;;;;;;;;;;6246431;28;20049;-67
2021/11/17 18:54:34;;;;;;;44.15;25.25;;;;;;;;;;6258102;28;20459;-66
2021/11/17 18:57:35;;;;;;;42.30;24.60;;;;;;;;;;6249102;28;20426;-66
2021/11/17 19:00:39;;;;;;;44.80;25.30;;;;;;;;;;6242670;28;20423;-66
2021/11/17 19:03:40;;;;;;;;;;;;;;;;;;6247645;28;20045;-66
2021/11/17 19:06:42;;;;;;;42.30;23.17;;;;;;;;;;6245640;28;19970;-66
2021/11/17 19:09:43;;;;;;;42.15;23.80;;;;;;;;;;6243272;28;21365;-66
2021/11/17 19:12:45;;;;;;;41.25;23.88;;;;;;;;;;6245426;28;20484;-66
2021/11/17 19:15:46;;;;;;;42.67;24.85;;;;;;;;;;6243311;28;20179;-66
2021/11/17 19:18:49;;;;;;;41.75;24.33;;;;;;;;;;6250531;28;20110;-66
2021/11/17 19:21:51;;;;;;;40.40;22.88;;;;;;;;;;6244703;28;20047;-65
2021/11/17 19:24:53;;;;;;;44.35;25.05;;;;;;;;;;6253302;28;20041;-65
2021/11/17 19:27:55;;;;;;;46.25;25.52;;;;;;;;;;6251256;28;20119;-66
2021/11/17 19:30:57;;;;;;;44.38;24.92;;;;;;;;;;6245322;28;20052;-66
2021/11/17 19:33:59;;;;;;;39.65;24.02;;;;;;;;;;6255283;28;20179;-66
2021/11/17 19:37:01;;;;;;;43.38;25.33;;;;;;;;;;6246930;28;20048;-67
2021/11/17 19:40:04;;;;;;;44.67;25.77;;;;;;;;;;6253943;28;20063;-66
2021/11/17 19:43:05;;;;;;;42.03;25.88;;;;;;;;;;6251613;28;20172;-65
2021/11/17 19:46:07;;;;;;;42.10;24.95;;;;;;;;;;6251366;28;20045;-65
2021/11/17 19:49:10;;;;;;;41.53;25.50;;;;;;;;;;6257780;28;20176;-65
2021/11/17 19:52:13;;;;;;;45.30;26.43;;;;;;;;;;6249246;28;20072;-65
2021/11/17 19:55:15;;;;;;;46.90;25.70;;;;;;;;;;6253876;28;20038;-66
2021/11/17 19:58:17;;;;;;;51.05;27.67;;;;;;;;;;6265887;28;20102;-65
2021/11/17 20:01:18;;;;;;;46.88;27.30;;;;;;;;;;6243147;28;20136;-65
2021/11/17 20:04:21;;;;;;;52.25;28.05;;;;;;;;;;6259443;28;20045;-65
2021/11/17 20:07:26;;;;;;;45.78;25.75;;;;;;;;;;6247984;28;20523;-66
2021/11/17 20:10:29;;;;;;;47.28;26.63;;;;;;;;;;6259000;28;20048;-66
2021/11/17 20:13:31;;;;;;;48.97;26.80;;;;;;;;;;6259841;28;20041;-66
2021/11/17 20:16:32;;;;;;;50.80;27.20;;;;;;;;;;6244723;28;20045;-66
2021/11/17 20:19:36;;;;;;;47.28;25.92;;;;;;;;;;6261930;28;20067;-65
2021/11/17 20:22:38;;;;;;;46.42;26.80;;;;;;;;;;6244959;28;20064;-66
2021/11/17 20:25:40;;;;;;;50.97;27.63;;;;;;;;;;6238834;28;20403;-65
2021/11/17 20:28:42;;;;;;;47.60;26.92;;;;;;;;;;6254412;28;20052;-65
2021/11/17 20:31:44;;;;;;;48.97;27.42;;;;;;;;;;6243324;28;20163;-65